sensor_id;sensor_type;location;lat;lon;timestamp;temperature;humidity
20973;DHT22;10645;52.370;13.314;2023-04-16T00:00:50;9.60;99.90
20973;DHT22;10645;52.370;13.314;2023-04-16T00:03:16;9.60;99.90
20973;DHT22;10645;52.370;13.314;2023-04-16T00:05:42;9.60;99.90
20973;DHT22;10645;52.370;13.314;2023-04-16T00:08:09;9.60;99.90
20973;DHT22;10645;52.370;13.314;2023-04-16T00:10:35;9.50;99.90
20973;DHT22;10645;52.370;13.314;2023-04-16T00:13:02;9.60;99.90
20973;DHT22;10645;52.370;13.314;2023-04-16T00:15:28;9.60;99.90
20973;DHT22;10645;52.370;13.314;2023-04-16T00:17:54;9.60;99.90
20973;DHT22;10645;52.370;13.314;2023-04-16T00:20:20;9.60;99.90
20973;DHT22;10645;52.370;13.314;2023-04-16T00:22:47;9.60;99.90
20973;DHT22;10645;52.370;13.314;2023-04-16T00:25:13;9.60;99.90
20973;DHT22;10645;52.370;13.314;2023-04-16T00:27:39;9.60;99.90
20973;DHT22;10645;52.370;13.314;2023-04-16T00:30:06;9.60;99.90
20973;DHT22;10645;52.370;13.314;2023-04-16T00:32:32;9.60;99.90
20973;DHT22;10645;52.370;13.314;2023-04-16T00:34:59;9.60;99.90
20973;DHT22;10645;52.370;13.314;2023-04-16T00:37:25;9.60;99.90
20973;DHT22;10645;52.370;13.314;2023-04-16T00:39:51;9.60;99.90
20973;DHT22;10645;52.370;13.314;2023-04-16T00:42:17;9.50;99.90
20973;DHT22;10645;52.370;13.314;2023-04-16T00:44:43;9.50;99.90
20973;DHT22;10645;52.370;13.314;2023-04-16T00:47:10;9.50;99.90
20973;DHT22;10645;52.370;13.314;2023-04-16T00:49:36;9.50;99.90
20973;DHT22;10645;52.370;13.314;2023-04-16T00:52:02;9.50;99.90
20973;DHT22;10645;52.370;13.314;2023-04-16T00:54:30;9.50;99.90
20973;DHT22;10645;52.370;13.314;2023-04-16T00:56:58;9.50;99.90
20973;DHT22;10645;52.370;13.314;2023-04-16T00:59:25;9.50;99.90
20973;DHT22;10645;52.370;13.314;2023-04-16T01:01:51;9.50;99.90
20973;DHT22;10645;52.370;13.314;2023-04-16T01:04:17;9.50;99.90
20973;DHT22;10645;52.370;13.314;2023-04-16T01:06:43;9.40;99.90
20973;DHT22;10645;52.370;13.314;2023-04-16T01:09:10;9.40;99.90
20973;DHT22;10645;52.370;13.314;2023-04-16T01:11:36;9.40;99.90
20973;DHT22;10645;52.370;13.314;2023-04-16T01:14:03;9.40;99.90
20973;DHT22;10645;52.370;13.314;2023-04-16T01:16:29;9.40;99.90
20973;DHT22;10645;52.370;13.314;2023-04-16T01:18:55;9.40;99.90
20973;DHT22;10645;52.370;13.314;2023-04-16T01:21:21;9.40;99.90
20973;DHT22;10645;52.370;13.314;2023-04-16T01:23:47;9.40;99.90
20973;DHT22;10645;52.370;13.314;2023-04-16T01:26:13;9.40;99.90
20973;DHT22;10645;52.370;13.314;2023-04-16T01:28:40;9.40;99.90
20973;DHT22;10645;52.370;13.314;2023-04-16T01:31:07;9.40;99.90
20973;DHT22;10645;52.370;13.314;2023-04-16T01:33:53;9.40;99.90
20973;DHT22;10645;52.370;13.314;2023-04-16T01:36:19;9.40;99.90
20973;DHT22;10645;52.370;13.314;2023-04-16T01:38:47;9.40;99.90
20973;DHT22;10645;52.370;13.314;2023-04-16T01:41:13;9.40;99.90
20973;DHT22;10645;52.370;13.314;2023-04-16T01:43:40;9.40;99.90
20973;DHT22;10645;52.370;13.314;2023-04-16T01:46:29;9.40;99.90
20973;DHT22;10645;52.370;13.314;2023-04-16T01:48:56;9.40;99.90
20973;DHT22;10645;52.370;13.314;2023-04-16T01:51:23;9.40;99.90
20973;DHT22;10645;52.370;13.314;2023-04-16T01:53:50;9.40;99.90
20973;DHT22;10645;52.370;13.314;2023-04-16T01:56:16;9.40;99.90
20973;DHT22;10645;52.370;13.314;2023-04-16T01:58:42;9.40;99.90
20973;DHT22;10645;52.370;13.314;2023-04-16T02:01:08;9.40;99.90
20973;DHT22;10645;52.370;13.314;2023-04-16T02:03:35;9.40;99.90
20973;DHT22;10645;52.370;13.314;2023-04-16T02:06:03;9.40;99.90
20973;DHT22;10645;52.370;13.314;2023-04-16T02:08:29;9.40;99.90
20973;DHT22;10645;52.370;13.314;2023-04-16T02:10:55;9.40;99.90
20973;DHT22;10645;52.370;13.314;2023-04-16T02:13:23;9.40;99.90
20973;DHT22;10645;52.370;13.314;2023-04-16T02:15:51;9.50;99.90
20973;DHT22;10645;52.370;13.314;2023-04-16T02:18:33;9.50;99.90
20973;DHT22;10645;52.370;13.314;2023-04-16T02:20:59;9.50;99.90
20973;DHT22;10645;52.370;13.314;2023-04-16T02:23:25;9.40;99.90
20973;DHT22;10645;52.370;13.314;2023-04-16T02:25:51;9.40;99.90
20973;DHT22;10645;52.370;13.314;2023-04-16T02:28:18;9.50;99.90
20973;DHT22;10645;52.370;13.314;2023-04-16T02:30:45;9.50;99.90
20973;DHT22;10645;52.370;13.314;2023-04-16T02:33:13;9.50;99.90
20973;DHT22;10645;52.370;13.314;2023-04-16T02:35:48;9.50;99.90
20973;DHT22;10645;52.370;13.314;2023-04-16T02:38:14;9.50;99.90
20973;DHT22;10645;52.370;13.314;2023-04-16T02:40:40;9.50;99.90
20973;DHT22;10645;52.370;13.314;2023-04-16T02:43:06;9.50;99.90
20973;DHT22;10645;52.370;13.314;2023-04-16T02:45:32;9.50;99.90
20973;DHT22;10645;52.370;13.314;2023-04-16T02:48:00;9.50;99.90
20973;DHT22;10645;52.370;13.314;2023-04-16T02:50:26;9.50;99.90
20973;DHT22;10645;52.370;13.314;2023-04-16T02:52:52;9.60;99.90
20973;DHT22;10645;52.370;13.314;2023-04-16T02:55:18;9.50;99.90
20973;DHT22;10645;52.370;13.314;2023-04-16T02:57:44;9.50;99.90
20973;DHT22;10645;52.370;13.314;2023-04-16T03:00:10;9.50;99.90
20973;DHT22;10645;52.370;13.314;2023-04-16T03:02:37;9.50;99.90
20973;DHT22;10645;52.370;13.314;2023-04-16T03:05:04;9.50;99.90
20973;DHT22;10645;52.370;13.314;2023-04-16T03:07:30;9.50;99.90
20973;DHT22;10645;52.370;13.314;2023-04-16T03:09:56;9.50;99.90
20973;DHT22;10645;52.370;13.314;2023-04-16T03:12:22;9.50;99.90
20973;DHT22;10645;52.370;13.314;2023-04-16T03:14:50;9.50;99.90
20973;DHT22;10645;52.370;13.314;2023-04-16T03:17:17;9.50;99.90
20973;DHT22;10645;52.370;13.314;2023-04-16T03:19:43;9.40;99.90
20973;DHT22;10645;52.370;13.314;2023-04-16T03:22:09;9.40;99.90
20973;DHT22;10645;52.370;13.314;2023-04-16T03:24:35;9.40;99.90
20973;DHT22;10645;52.370;13.314;2023-04-16T03:27:03;9.40;99.90
20973;DHT22;10645;52.370;13.314;2023-04-16T03:29:29;9.40;99.90
20973;DHT22;10645;52.370;13.314;2023-04-16T03:31:56;9.30;99.90
20973;DHT22;10645;52.370;13.314;2023-04-16T03:34:22;9.30;99.90
20973;DHT22;10645;52.370;13.314;2023-04-16T03:36:48;9.30;99.90
20973;DHT22;10645;52.370;13.314;2023-04-16T03:39:14;9.30;99.90
20973;DHT22;10645;52.370;13.314;2023-04-16T03:41:41;9.30;99.90
20973;DHT22;10645;52.370;13.314;2023-04-16T03:44:07;9.20;99.90
20973;DHT22;10645;52.370;13.314;2023-04-16T03:46:34;9.20;99.90
20973;DHT22;10645;52.370;13.314;2023-04-16T03:49:00;9.20;99.90
20973;DHT22;10645;52.370;13.314;2023-04-16T03:51:27;9.20;99.90
20973;DHT22;10645;52.370;13.314;2023-04-16T03:53:53;9.20;99.90
20973;DHT22;10645;52.370;13.314;2023-04-16T03:56:20;9.20;99.90
20973;DHT22;10645;52.370;13.314;2023-04-16T03:58:46;9.10;99.90
20973;DHT22;10645;52.370;13.314;2023-04-16T04:01:12;9.10;99.90
20973;DHT22;10645;52.370;13.314;2023-04-16T04:03:38;9.10;99.90
20973;DHT22;10645;52.370;13.314;2023-04-16T04:06:06;9.10;99.90
20973;DHT22;10645;52.370;13.314;2023-04-16T04:08:33;9.00;99.90
20973;DHT22;10645;52.370;13.314;2023-04-16T04:10:59;9.00;99.90
20973;DHT22;10645;52.370;13.314;2023-04-16T04:13:25;9.00;99.90
20973;DHT22;10645;52.370;13.314;2023-04-16T04:15:52;9.00;99.90
20973;DHT22;10645;52.370;13.314;2023-04-16T04:18:18;9.00;99.90
20973;DHT22;10645;52.370;13.314;2023-04-16T04:20:44;9.00;99.90
20973;DHT22;10645;52.370;13.314;2023-04-16T04:23:14;9.00;99.90
20973;DHT22;10645;52.370;13.314;2023-04-16T04:25:40;8.90;99.90
20973;DHT22;10645;52.370;13.314;2023-04-16T04:28:07;8.90;99.90
20973;DHT22;10645;52.370;13.314;2023-04-16T04:30:33;9.00;99.90
20973;DHT22;10645;52.370;13.314;2023-04-16T04:33:01;9.00;99.90
20973;DHT22;10645;52.370;13.314;2023-04-16T04:35:27;9.00;99.90
20973;DHT22;10645;52.370;13.314;2023-04-16T04:37:53;9.00;99.90
20973;DHT22;10645;52.370;13.314;2023-04-16T04:40:20;9.00;99.90
20973;DHT22;10645;52.370;13.314;2023-04-16T04:42:46;9.00;99.90
20973;DHT22;10645;52.370;13.314;2023-04-16T04:45:12;9.00;99.90
20973;DHT22;10645;52.370;13.314;2023-04-16T04:47:40;8.90;99.90
20973;DHT22;10645;52.370;13.314;2023-04-16T04:50:06;9.00;99.90
20973;DHT22;10645;52.370;13.314;2023-04-16T04:52:33;9.00;99.90
20973;DHT22;10645;52.370;13.314;2023-04-16T04:55:00;9.00;99.90
20973;DHT22;10645;52.370;13.314;2023-04-16T04:57:27;9.00;99.90
20973;DHT22;10645;52.370;13.314;2023-04-16T04:59:54;9.00;99.90
20973;DHT22;10645;52.370;13.314;2023-04-16T05:02:20;9.00;99.90
20973;DHT22;10645;52.370;13.314;2023-04-16T05:04:46;8.90;99.90
20973;DHT22;10645;52.370;13.314;2023-04-16T05:07:12;8.90;99.90
20973;DHT22;10645;52.370;13.314;2023-04-16T05:09:38;8.90;99.90
20973;DHT22;10645;52.370;13.314;2023-04-16T05:12:04;8.90;99.90
20973;DHT22;10645;52.370;13.314;2023-04-16T05:14:30;8.90;99.90
20973;DHT22;10645;52.370;13.314;2023-04-16T05:16:56;8.90;99.90
20973;DHT22;10645;52.370;13.314;2023-04-16T05:19:22;8.90;99.90
20973;DHT22;10645;52.370;13.314;2023-04-16T05:21:48;8.90;99.90
20973;DHT22;10645;52.370;13.314;2023-04-16T05:24:15;8.90;99.90
20973;DHT22;10645;52.370;13.314;2023-04-16T05:26:41;8.90;99.90
20973;DHT22;10645;52.370;13.314;2023-04-16T05:29:07;8.90;99.90
20973;DHT22;10645;52.370;13.314;2023-04-16T05:31:33;8.90;99.90
20973;DHT22;10645;52.370;13.314;2023-04-16T05:33:59;8.90;99.90
20973;DHT22;10645;52.370;13.314;2023-04-16T05:36:25;8.90;99.90
20973;DHT22;10645;52.370;13.314;2023-04-16T05:38:51;8.90;99.90
20973;DHT22;10645;52.370;13.314;2023-04-16T05:41:17;8.90;99.90
20973;DHT22;10645;52.370;13.314;2023-04-16T05:43:43;8.80;99.90
20973;DHT22;10645;52.370;13.314;2023-04-16T05:46:09;8.90;99.90
20973;DHT22;10645;52.370;13.314;2023-04-16T05:48:36;8.90;99.90
20973;DHT22;10645;52.370;13.314;2023-04-16T05:51:02;8.90;99.90
20973;DHT22;10645;52.370;13.314;2023-04-16T05:53:28;9.00;99.90
20973;DHT22;10645;52.370;13.314;2023-04-16T05:55:54;9.00;99.90
20973;DHT22;10645;52.370;13.314;2023-04-16T05:58:20;9.00;99.90
20973;DHT22;10645;52.370;13.314;2023-04-16T06:00:46;9.00;99.90
20973;DHT22;10645;52.370;13.314;2023-04-16T06:03:12;9.00;99.90
20973;DHT22;10645;52.370;13.314;2023-04-16T06:05:38;9.00;99.90
20973;DHT22;10645;52.370;13.314;2023-04-16T06:08:04;9.00;99.90
20973;DHT22;10645;52.370;13.314;2023-04-16T06:10:30;9.00;99.90
20973;DHT22;10645;52.370;13.314;2023-04-16T06:12:56;9.00;99.90
20973;DHT22;10645;52.370;13.314;2023-04-16T06:15:22;9.00;99.90
20973;DHT22;10645;52.370;13.314;2023-04-16T06:17:48;9.10;99.90
20973;DHT22;10645;52.370;13.314;2023-04-16T06:20:15;9.10;99.90
20973;DHT22;10645;52.370;13.314;2023-04-16T06:22:41;9.10;99.90
20973;DHT22;10645;52.370;13.314;2023-04-16T06:25:08;9.10;99.90
20973;DHT22;10645;52.370;13.314;2023-04-16T06:27:34;9.10;99.90
20973;DHT22;10645;52.370;13.314;2023-04-16T06:30:00;9.10;99.90
20973;DHT22;10645;52.370;13.314;2023-04-16T06:32:26;9.20;99.90
20973;DHT22;10645;52.370;13.314;2023-04-16T06:34:52;9.20;99.90
20973;DHT22;10645;52.370;13.314;2023-04-16T06:37:18;9.20;99.90
20973;DHT22;10645;52.370;13.314;2023-04-16T06:39:44;9.30;99.90
20973;DHT22;10645;52.370;13.314;2023-04-16T06:42:10;9.30;99.90
20973;DHT22;10645;52.370;13.314;2023-04-16T06:44:37;9.40;99.90
20973;DHT22;10645;52.370;13.314;2023-04-16T06:47:03;9.40;99.90
20973;DHT22;10645;52.370;13.314;2023-04-16T06:49:29;9.40;99.90
20973;DHT22;10645;52.370;13.314;2023-04-16T06:51:56;9.50;99.90
20973;DHT22;10645;52.370;13.314;2023-04-16T06:54:22;9.50;99.90
20973;DHT22;10645;52.370;13.314;2023-04-16T06:56:48;9.50;99.90
20973;DHT22;10645;52.370;13.314;2023-04-16T06:59:14;9.50;99.90
20973;DHT22;10645;52.370;13.314;2023-04-16T07:01:40;9.50;99.90
20973;DHT22;10645;52.370;13.314;2023-04-16T07:04:07;9.50;99.90
20973;DHT22;10645;52.370;13.314;2023-04-16T07:06:33;9.50;99.90
20973;DHT22;10645;52.370;13.314;2023-04-16T07:08:59;9.50;99.90
20973;DHT22;10645;52.370;13.314;2023-04-16T07:11:25;9.50;99.90
20973;DHT22;10645;52.370;13.314;2023-04-16T07:13:51;9.50;99.90
20973;DHT22;10645;52.370;13.314;2023-04-16T07:16:18;9.60;99.90
20973;DHT22;10645;52.370;13.314;2023-04-16T07:18:45;9.60;99.90
20973;DHT22;10645;52.370;13.314;2023-04-16T07:21:11;9.60;99.90
20973;DHT22;10645;52.370;13.314;2023-04-16T07:23:37;9.60;99.90
20973;DHT22;10645;52.370;13.314;2023-04-16T07:26:03;9.70;99.90
20973;DHT22;10645;52.370;13.314;2023-04-16T07:28:29;9.80;99.90
20973;DHT22;10645;52.370;13.314;2023-04-16T07:30:55;9.90;99.90
20973;DHT22;10645;52.370;13.314;2023-04-16T07:33:22;9.90;99.90
20973;DHT22;10645;52.370;13.314;2023-04-16T07:35:48;9.90;99.90
20973;DHT22;10645;52.370;13.314;2023-04-16T07:38:14;9.90;99.90
20973;DHT22;10645;52.370;13.314;2023-04-16T07:40:41;9.80;99.90
20973;DHT22;10645;52.370;13.314;2023-04-16T07:43:07;9.80;99.90
20973;DHT22;10645;52.370;13.314;2023-04-16T07:45:33;9.90;99.90
20973;DHT22;10645;52.370;13.314;2023-04-16T07:47:59;9.90;99.90
20973;DHT22;10645;52.370;13.314;2023-04-16T07:50:26;9.90;99.90
20973;DHT22;10645;52.370;13.314;2023-04-16T07:52:52;9.90;99.90
20973;DHT22;10645;52.370;13.314;2023-04-16T07:55:18;9.90;99.90
20973;DHT22;10645;52.370;13.314;2023-04-16T07:57:44;9.90;99.90
20973;DHT22;10645;52.370;13.314;2023-04-16T08:00:11;9.90;99.90
20973;DHT22;10645;52.370;13.314;2023-04-16T08:02:42;9.80;99.90
20973;DHT22;10645;52.370;13.314;2023-04-16T08:05:08;9.80;99.90
20973;DHT22;10645;52.370;13.314;2023-04-16T08:07:34;9.80;99.90
20973;DHT22;10645;52.370;13.314;2023-04-16T08:10:00;9.80;99.90
20973;DHT22;10645;52.370;13.314;2023-04-16T08:12:28;9.70;99.90
20973;DHT22;10645;52.370;13.314;2023-04-16T08:14:54;9.70;99.90
20973;DHT22;10645;52.370;13.314;2023-04-16T08:17:20;9.70;99.90
20973;DHT22;10645;52.370;13.314;2023-04-16T08:19:46;9.70;99.90
20973;DHT22;10645;52.370;13.314;2023-04-16T08:22:12;9.70;99.90
20973;DHT22;10645;52.370;13.314;2023-04-16T08:24:38;9.70;99.90
20973;DHT22;10645;52.370;13.314;2023-04-16T08:27:05;9.80;99.90
20973;DHT22;10645;52.370;13.314;2023-04-16T08:29:31;9.80;99.90
20973;DHT22;10645;52.370;13.314;2023-04-16T08:32:00;9.90;99.90
20973;DHT22;10645;52.370;13.314;2023-04-16T08:34:27;10.00;99.90
20973;DHT22;10645;52.370;13.314;2023-04-16T08:36:53;10.10;99.90
20973;DHT22;10645;52.370;13.314;2023-04-16T08:39:20;10.20;99.90
20973;DHT22;10645;52.370;13.314;2023-04-16T08:41:46;10.30;99.90
20973;DHT22;10645;52.370;13.314;2023-04-16T08:44:33;10.30;99.90
20973;DHT22;10645;52.370;13.314;2023-04-16T08:47:00;10.50;99.90
20973;DHT22;10645;52.370;13.314;2023-04-16T08:49:27;10.40;99.90
20973;DHT22;10645;52.370;13.314;2023-04-16T08:51:54;10.30;99.90
20973;DHT22;10645;52.370;13.314;2023-04-16T08:57:06;10.10;99.90
20973;DHT22;10645;52.370;13.314;2023-04-16T08:59:35;10.10;99.90
20973;DHT22;10645;52.370;13.314;2023-04-16T09:02:01;10.00;99.90
20973;DHT22;10645;52.370;13.314;2023-04-16T09:04:31;9.90;99.90
20973;DHT22;10645;52.370;13.314;2023-04-16T09:06:58;9.90;99.90
20973;DHT22;10645;52.370;13.314;2023-04-16T09:09:25;10.00;99.90
20973;DHT22;10645;52.370;13.314;2023-04-16T09:11:52;10.00;99.90
20973;DHT22;10645;52.370;13.314;2023-04-16T09:14:19;10.00;99.90
20973;DHT22;10645;52.370;13.314;2023-04-16T09:16:45;9.90;99.90
20973;DHT22;10645;52.370;13.314;2023-04-16T09:19:13;9.90;99.90
20973;DHT22;10645;52.370;13.314;2023-04-16T09:21:41;9.90;99.90
20973;DHT22;10645;52.370;13.314;2023-04-16T09:24:08;9.90;99.90
20973;DHT22;10645;52.370;13.314;2023-04-16T09:26:35;9.90;99.90
20973;DHT22;10645;52.370;13.314;2023-04-16T09:29:01;9.90;99.90
20973;DHT22;10645;52.370;13.314;2023-04-16T09:31:27;9.90;99.90
20973;DHT22;10645;52.370;13.314;2023-04-16T09:34:05;9.90;99.90
20973;DHT22;10645;52.370;13.314;2023-04-16T09:36:32;9.90;99.90
20973;DHT22;10645;52.370;13.314;2023-04-16T09:38:58;9.80;99.90
20973;DHT22;10645;52.370;13.314;2023-04-16T09:41:26;9.80;99.90
20973;DHT22;10645;52.370;13.314;2023-04-16T09:43:54;9.80;99.90
20973;DHT22;10645;52.370;13.314;2023-04-16T09:46:35;9.80;99.90
20973;DHT22;10645;52.370;13.314;2023-04-16T09:49:14;9.70;99.90
20973;DHT22;10645;52.370;13.314;2023-04-16T09:51:41;9.80;99.90
20973;DHT22;10645;52.370;13.314;2023-04-16T09:54:08;9.80;99.90
20973;DHT22;10645;52.370;13.314;2023-04-16T09:56:42;9.90;99.90
20973;DHT22;10645;52.370;13.314;2023-04-16T09:59:16;10.00;99.90
20973;DHT22;10645;52.370;13.314;2023-04-16T10:01:43;10.10;99.90
20973;DHT22;10645;52.370;13.314;2023-04-16T10:04:11;10.10;99.90
20973;DHT22;10645;52.370;13.314;2023-04-16T10:06:37;10.30;99.90
20973;DHT22;10645;52.370;13.314;2023-04-16T10:09:06;10.40;99.90
20973;DHT22;10645;52.370;13.314;2023-04-16T10:11:33;10.50;99.90
20973;DHT22;10645;52.370;13.314;2023-04-16T10:13:59;10.60;99.90
20973;DHT22;10645;52.370;13.314;2023-04-16T10:16:26;10.70;99.90
20973;DHT22;10645;52.370;13.314;2023-04-16T10:18:52;10.80;99.90
20973;DHT22;10645;52.370;13.314;2023-04-16T10:21:20;10.80;99.90
20973;DHT22;10645;52.370;13.314;2023-04-16T10:23:46;10.80;99.90
20973;DHT22;10645;52.370;13.314;2023-04-16T10:26:14;10.80;99.90
20973;DHT22;10645;52.370;13.314;2023-04-16T10:28:44;10.90;99.90
20973;DHT22;10645;52.370;13.314;2023-04-16T10:31:11;10.80;99.90
20973;DHT22;10645;52.370;13.314;2023-04-16T10:33:41;10.80;99.90
20973;DHT22;10645;52.370;13.314;2023-04-16T10:36:16;10.90;99.90
20973;DHT22;10645;52.370;13.314;2023-04-16T10:38:47;10.80;99.90
20973;DHT22;10645;52.370;13.314;2023-04-16T10:41:15;10.80;99.90
20973;DHT22;10645;52.370;13.314;2023-04-16T10:43:45;10.80;99.90
20973;DHT22;10645;52.370;13.314;2023-04-16T10:46:23;10.80;99.90
20973;DHT22;10645;52.370;13.314;2023-04-16T10:48:52;10.80;99.90
20973;DHT22;10645;52.370;13.314;2023-04-16T10:51:28;10.60;99.90
20973;DHT22;10645;52.370;13.314;2023-04-16T10:53:56;10.60;99.90
20973;DHT22;10645;52.370;13.314;2023-04-16T10:56:24;10.60;99.90
20973;DHT22;10645;52.370;13.314;2023-04-16T10:58:55;10.70;99.90
20973;DHT22;10645;52.370;13.314;2023-04-16T11:01:35;10.60;99.90
20973;DHT22;10645;52.370;13.314;2023-04-16T11:07:03;10.70;99.90
20973;DHT22;10645;52.370;13.314;2023-04-16T11:09:53;10.70;99.90
20973;DHT22;10645;52.370;13.314;2023-04-16T11:12:22;10.80;99.90
20973;DHT22;10645;52.370;13.314;2023-04-16T11:14:54;10.80;99.90
20973;DHT22;10645;52.370;13.314;2023-04-16T11:17:22;10.70;99.90
20973;DHT22;10645;52.370;13.314;2023-04-16T11:19:48;10.80;99.90
20973;DHT22;10645;52.370;13.314;2023-04-16T11:22:16;10.90;99.90
20973;DHT22;10645;52.370;13.314;2023-04-16T11:24:44;11.00;99.90
20973;DHT22;10645;52.370;13.314;2023-04-16T11:27:12;11.00;99.90
20973;DHT22;10645;52.370;13.314;2023-04-16T11:29:38;11.00;99.90
20973;DHT22;10645;52.370;13.314;2023-04-16T11:32:04;11.10;99.90
20973;DHT22;10645;52.370;13.314;2023-04-16T11:34:31;11.00;99.90
20973;DHT22;10645;52.370;13.314;2023-04-16T11:36:58;11.00;99.90
20973;DHT22;10645;52.370;13.314;2023-04-16T11:39:24;10.90;99.90
20973;DHT22;10645;52.370;13.314;2023-04-16T11:41:50;10.80;99.90
20973;DHT22;10645;52.370;13.314;2023-04-16T11:44:19;10.80;99.90
20973;DHT22;10645;52.370;13.314;2023-04-16T11:46:45;10.80;99.90
20973;DHT22;10645;52.370;13.314;2023-04-16T11:49:11;10.80;99.90
20973;DHT22;10645;52.370;13.314;2023-04-16T11:51:41;10.80;99.90
20973;DHT22;10645;52.370;13.314;2023-04-16T11:54:07;10.90;99.90
20973;DHT22;10645;52.370;13.314;2023-04-16T11:56:35;11.00;99.90
20973;DHT22;10645;52.370;13.314;2023-04-16T11:59:18;11.20;99.90
20973;DHT22;10645;52.370;13.314;2023-04-16T12:01:46;11.20;99.90
20973;DHT22;10645;52.370;13.314;2023-04-16T12:04:14;11.20;99.90
20973;DHT22;10645;52.370;13.314;2023-04-16T12:07:10;11.20;99.90
20973;DHT22;10645;52.370;13.314;2023-04-16T12:09:39;11.20;99.90
20973;DHT22;10645;52.370;13.314;2023-04-16T12:12:05;11.40;99.90
20973;DHT22;10645;52.370;13.314;2023-04-16T12:14:52;11.50;99.90
20973;DHT22;10645;52.370;13.314;2023-04-16T12:17:20;11.70;99.90
20973;DHT22;10645;52.370;13.314;2023-04-16T12:20:02;11.70;99.90
20973;DHT22;10645;52.370;13.314;2023-04-16T12:22:32;11.70;99.90
20973;DHT22;10645;52.370;13.314;2023-04-16T12:25:19;11.60;99.90
20973;DHT22;10645;52.370;13.314;2023-04-16T12:27:50;11.60;99.90
20973;DHT22;10645;52.370;13.314;2023-04-16T12:30:19;11.60;99.90
20973;DHT22;10645;52.370;13.314;2023-04-16T12:32:47;11.40;99.90
20973;DHT22;10645;52.370;13.314;2023-04-16T12:35:28;11.30;99.90
20973;DHT22;10645;52.370;13.314;2023-04-16T12:37:54;11.20;99.90
20973;DHT22;10645;52.370;13.314;2023-04-16T12:40:21;11.10;99.90
20973;DHT22;10645;52.370;13.314;2023-04-16T12:42:48;11.00;99.90
20973;DHT22;10645;52.370;13.314;2023-04-16T12:45:14;10.90;99.90
20973;DHT22;10645;52.370;13.314;2023-04-16T12:47:40;10.80;99.90
20973;DHT22;10645;52.370;13.314;2023-04-16T12:50:07;10.70;99.90
20973;DHT22;10645;52.370;13.314;2023-04-16T12:52:33;10.70;99.90
20973;DHT22;10645;52.370;13.314;2023-04-16T12:55:00;10.60;99.90
20973;DHT22;10645;52.370;13.314;2023-04-16T12:57:27;10.60;99.90
20973;DHT22;10645;52.370;13.314;2023-04-16T12:59:54;10.60;99.90
20973;DHT22;10645;52.370;13.314;2023-04-16T13:02:21;10.60;99.90
20973;DHT22;10645;52.370;13.314;2023-04-16T13:04:51;10.50;99.90
20973;DHT22;10645;52.370;13.314;2023-04-16T13:07:18;10.50;99.90
20973;DHT22;10645;52.370;13.314;2023-04-16T13:09:45;10.50;99.90
20973;DHT22;10645;52.370;13.314;2023-04-16T13:12:11;10.50;99.90
20973;DHT22;10645;52.370;13.314;2023-04-16T13:14:37;10.50;99.90
20973;DHT22;10645;52.370;13.314;2023-04-16T13:17:04;10.50;99.90
20973;DHT22;10645;52.370;13.314;2023-04-16T13:19:30;10.50;99.90
20973;DHT22;10645;52.370;13.314;2023-04-16T13:21:56;10.50;99.90
20973;DHT22;10645;52.370;13.314;2023-04-16T13:24:23;10.40;99.90
20973;DHT22;10645;52.370;13.314;2023-04-16T13:26:50;10.40;99.90
20973;DHT22;10645;52.370;13.314;2023-04-16T13:29:19;10.40;99.90
20973;DHT22;10645;52.370;13.314;2023-04-16T13:31:45;10.30;99.90
20973;DHT22;10645;52.370;13.314;2023-04-16T13:34:12;10.20;99.90
20973;DHT22;10645;52.370;13.314;2023-04-16T13:36:38;10.20;99.90
20973;DHT22;10645;52.370;13.314;2023-04-16T13:39:04;10.10;99.90
20973;DHT22;10645;52.370;13.314;2023-04-16T13:41:35;10.00;99.90
20973;DHT22;10645;52.370;13.314;2023-04-16T13:44:02;10.00;99.90
20973;DHT22;10645;52.370;13.314;2023-04-16T13:46:28;9.90;99.90
20973;DHT22;10645;52.370;13.314;2023-04-16T13:48:54;9.90;99.90
20973;DHT22;10645;52.370;13.314;2023-04-16T13:51:21;9.80;99.90
20973;DHT22;10645;52.370;13.314;2023-04-16T13:53:47;9.80;99.90
20973;DHT22;10645;52.370;13.314;2023-04-16T13:56:13;9.70;99.90
20973;DHT22;10645;52.370;13.314;2023-04-16T13:58:39;9.80;99.90
20973;DHT22;10645;52.370;13.314;2023-04-16T14:01:07;9.90;99.90
20973;DHT22;10645;52.370;13.314;2023-04-16T14:03:34;9.90;99.90
20973;DHT22;10645;52.370;13.314;2023-04-16T14:06:02;9.90;99.90
20973;DHT22;10645;52.370;13.314;2023-04-16T14:08:29;9.90;99.90
20973;DHT22;10645;52.370;13.314;2023-04-16T14:10:56;10.00;99.90
20973;DHT22;10645;52.370;13.314;2023-04-16T14:13:22;10.10;99.90
20973;DHT22;10645;52.370;13.314;2023-04-16T14:15:49;10.20;99.90
20973;DHT22;10645;52.370;13.314;2023-04-16T14:18:15;10.20;99.90
20973;DHT22;10645;52.370;13.314;2023-04-16T14:20:42;10.30;99.90
20973;DHT22;10645;52.370;13.314;2023-04-16T14:23:08;10.40;99.90
20973;DHT22;10645;52.370;13.314;2023-04-16T14:25:34;10.50;99.90
20973;DHT22;10645;52.370;13.314;2023-04-16T14:28:00;10.60;99.90
20973;DHT22;10645;52.370;13.314;2023-04-16T14:30:26;10.70;99.90
20973;DHT22;10645;52.370;13.314;2023-04-16T14:32:52;10.90;99.90
20973;DHT22;10645;52.370;13.314;2023-04-16T14:35:19;11.00;99.90
20973;DHT22;10645;52.370;13.314;2023-04-16T14:37:45;11.20;99.90
20973;DHT22;10645;52.370;13.314;2023-04-16T14:40:12;11.40;99.90
20973;DHT22;10645;52.370;13.314;2023-04-16T14:42:38;11.40;99.90
20973;DHT22;10645;52.370;13.314;2023-04-16T14:45:05;11.50;99.90
20973;DHT22;10645;52.370;13.314;2023-04-16T14:47:35;11.60;99.90
20973;DHT22;10645;52.370;13.314;2023-04-16T14:50:01;11.60;99.90
20973;DHT22;10645;52.370;13.314;2023-04-16T14:52:30;11.60;99.90
20973;DHT22;10645;52.370;13.314;2023-04-16T14:54:56;11.60;99.90
20973;DHT22;10645;52.370;13.314;2023-04-16T14:57:22;11.60;99.90
20973;DHT22;10645;52.370;13.314;2023-04-16T14:59:49;11.50;99.90
20973;DHT22;10645;52.370;13.314;2023-04-16T15:02:15;11.40;99.90
20973;DHT22;10645;52.370;13.314;2023-04-16T15:04:41;11.40;99.90
20973;DHT22;10645;52.370;13.314;2023-04-16T15:07:07;11.30;99.90
20973;DHT22;10645;52.370;13.314;2023-04-16T15:09:34;11.30;99.90
20973;DHT22;10645;52.370;13.314;2023-04-16T15:12:00;11.30;99.90
20973;DHT22;10645;52.370;13.314;2023-04-16T15:14:26;11.20;99.90
20973;DHT22;10645;52.370;13.314;2023-04-16T15:16:52;11.20;99.90
20973;DHT22;10645;52.370;13.314;2023-04-16T15:19:18;11.10;99.90
20973;DHT22;10645;52.370;13.314;2023-04-16T15:21:44;11.10;99.90
20973;DHT22;10645;52.370;13.314;2023-04-16T15:24:11;11.00;99.90
20973;DHT22;10645;52.370;13.314;2023-04-16T15:26:37;11.00;99.90
20973;DHT22;10645;52.370;13.314;2023-04-16T15:29:03;11.00;99.90
20973;DHT22;10645;52.370;13.314;2023-04-16T15:31:29;10.90;99.90